Time;durP1;ratioP1;P1;durP2;ratioP2;P2;SDS_P1;SDS_P2;PMS_P1;PMS_P2;Temp;Humidity;BMP_temperature;BMP_pressure;BME280_temperature;BME280_humidity;BME280_pressure;Samples;Min_cycle;Max_cycle;Signal;HPM_P1;HPM_P2
2020/12/24 00:03:51;;;;;;;7.82;4.10;;;;;;;-5.25;57.16;99263.53;10500929;28;20472;-50
2020/12/24 00:08:53;;;;;;;7.90;2.72;;;;;;;-5.17;57.29;99271.84;10499481;28;20606;-51
2020/12/24 00:13:55;;;;;;;6.90;2.50;;;;;;;-5.06;57.24;99261.28;10497681;28;20438;-52
2020/12/24 00:18:58;;;;;;;10.90;4.53;;;;;;;-5.14;57.23;99264.06;10498321;28;20048;-50
2020/12/24 00:23:59;;;;;;;12.23;5.63;;;;;;;-5.21;57.64;99261.72;10500615;28;20109;-51
2020/12/24 00:29:06;;;;;;;13.30;5.47;;;;;;;-5.21;57.79;99265.09;10499711;28;20401;-52
2020/12/24 00:34:09;;;;;;;13.13;5.28;;;;;;;-5.14;57.79;99271.75;10496843;28;20481;-50
2020/12/24 00:39:10;;;;;;;5.22;2.72;;;;;;;-5.00;57.83;99267.97;10496913;28;20059;-51
2020/12/24 00:44:12;;;;;;;5.05;2.08;;;;;;;-5.00;57.56;99253.41;10496871;28;20060;-51
2020/12/24 00:49:15;;;;;;;11.70;3.55;;;;;;;-5.05;57.83;99259.53;10495945;28;20051;-50
2020/12/24 00:54:17;;;;;;;8.27;3.25;;;;;;;-5.03;57.59;99250.94;10495956;28;20362;-52
2020/12/24 00:59:19;;;;;;;12.68;5.53;;;;;;;-5.03;58.05;99258.63;10495471;28;20430;-51
2020/12/24 01:04:21;;;;;;;11.15;4.78;;;;;;;-5.05;57.77;99239.03;10499229;28;20117;-51
2020/12/24 01:09:23;;;;;;;9.63;4.37;;;;;;;-5.12;58.10;99248.63;10496191;28;20043;-49
2020/12/24 01:14:25;;;;;;;13.85;6.32;;;;;;;-5.21;58.91;99244.59;10495842;28;20064;-50
2020/12/24 01:19:27;;;;;;;13.63;4.47;;;;;;;-5.09;58.71;99244.25;10495973;28;20384;-50
2020/12/24 01:24:29;;;;;;;13.63;5.53;;;;;;;-5.10;58.85;99241.75;10495973;28;20071;-50
2020/12/24 01:29:31;;;;;;;10.18;4.03;;;;;;;-5.14;58.89;99225.63;10497479;28;20058;-52
2020/12/24 01:34:34;;;;;;;6.28;2.60;;;;;;;-5.07;58.80;99235.69;10496464;28;20083;-50
2020/12/24 01:39:36;;;;;;;11.85;5.82;;;;;;;-5.04;58.97;99230.50;10496967;28;20482;-51
2020/12/24 01:44:37;;;;;;;9.30;3.45;;;;;;;-4.95;58.67;99227.66;10495394;28;20405;-50
2020/12/24 01:49:40;;;;;;;11.73;4.18;;;;;;;-4.92;58.74;99230.13;10495079;28;20048;-50
2020/12/24 01:54:42;;;;;;;13.43;4.43;;;;;;;-4.88;58.96;99231.69;10497151;28;20061;-51
2020/12/24 01:59:44;;;;;;;6.45;3.15;;;;;;;-4.75;58.43;99221.91;10496314;28;20443;-49
2020/12/24 02:04:46;;;;;;;10.73;4.55;;;;;;;-4.73;58.23;99215.84;10498298;28;20151;-52
2020/12/24 02:09:49;;;;;;;7.28;2.67;;;;;;;-4.73;58.59;99218.41;10496180;28;20044;-50
2020/12/24 02:14:50;;;;;;;12.38;5.55;;;;;;;-4.69;58.58;99211.47;10495249;28;20130;-50
2020/12/24 02:19:53;;;;;;;12.48;4.53;;;;;;;-4.64;58.34;99223.25;10490323;28;20060;-50
2020/12/24 02:24:55;;;;;;;12.52;5.18;;;;;;;-4.48;58.48;99218.50;10460965;28;20053;-55
2020/12/24 02:29:58;;;;;;;16.83;7.00;;;;;;;-4.55;58.24;99214.44;10460667;28;20045;-50
2020/12/24 02:34:59;;;;;;;19.17;7.60;;;;;;;-4.55;58.51;99218.75;10460522;28;20059;-49
2020/12/24 02:40:03;;;;;;;15.27;6.32;;;;;;;-4.44;58.34;99224.34;10460833;28;20052;-50
2020/12/24 02:45:05;;;;;;;13.38;5.75;;;;;;;-4.54;58.35;99210.16;10459380;28;20114;-51
2020/12/24 02:50:09;;;;;;;8.68;4.25;;;;;;;-4.54;58.60;99220.41;10459496;28;20138;-50
2020/12/24 02:55:11;;;;;;;12.05;5.25;;;;;;;-4.51;58.40;99215.19;10463116;28;20045;-52
2020/12/24 03:00:13;;;;;;;10.23;3.75;;;;;;;-4.52;58.45;99208.38;10498387;28;20063;-50
2020/12/24 03:05:15;;;;;;;14.23;6.57;;;;;;;-4.47;58.76;99206.50;10487581;28;20416;-49
2020/12/24 03:10:17;;;;;;;15.45;6.55;;;;;;;-4.45;58.40;99197.03;10500517;28;20063;-51
2020/12/24 03:15:19;;;;;;;13.90;6.23;;;;;;;-4.44;58.74;99202.09;10500796;28;20052;-51
2020/12/24 03:20:21;;;;;;;12.35;5.18;;;;;;;-4.55;58.75;99196.50;10500500;28;20631;-49
2020/12/24 03:25:23;;;;;;;17.77;6.35;;;;;;;-4.56;58.88;99192.22;10501508;28;20071;-50
2020/12/24 03:30:25;;;;;;;12.65;5.20;;;;;;;-4.48;58.85;99192.84;10498778;28;20075;-51
2020/12/24 03:35:26;;;;;;;17.42;6.75;;;;;;;-4.44;58.76;99183.31;10499460;28;20127;-49
2020/12/24 03:40:29;;;;;;;9.90;4.53;;;;;;;-4.35;59.04;99179.59;10500333;28;20048;-50
2020/12/24 03:45:31;;;;;;;14.67;5.90;;;;;;;-4.23;58.87;99179.19;10499319;28;20555;-49
2020/12/24 03:50:32;;;;;;;9.45;4.25;;;;;;;-4.17;58.84;99179.84;10498829;28;20055;-51
2020/12/24 03:55:35;;;;;;;16.77;6.95;;;;;;;-4.13;58.99;99180.56;10497758;28;20048;-50
2020/12/24 04:00:36;;;;;;;19.45;7.50;;;;;;;-3.99;58.73;99185.25;10498282;28;20485;-50
2020/12/24 04:05:38;;;;;;;20.90;8.00;;;;;;;-3.95;58.61;99189.38;10476272;28;20056;-49
2020/12/24 04:10:41;;;;;;;19.65;8.68;;;;;;;-3.82;58.56;99195.75;10456529;28;20124;-52
2020/12/24 04:15:43;;;;;;;21.55;8.95;;;;;;;-3.73;58.46;99190.28;10492562;28;20102;-49
2020/12/24 04:20:45;;;;;;;29.08;11.07;;;;;;;-3.52;58.40;99198.16;10497867;28;20048;-50
2020/12/24 04:25:47;;;;;;;27.73;11.82;;;;;;;-3.37;58.23;99195.03;10497660;28;20547;-49
2020/12/24 04:30:49;;;;;;;20.60;8.53;;;;;;;-3.22;58.23;99201.34;10497135;28;20087;-50
2020/12/24 04:35:53;;;;;;;22.13;9.30;;;;;;;-3.04;57.97;99204.97;10497923;28;20044;-50
2020/12/24 04:40:58;;;;;;;26.35;10.05;;;;;;;-3.13;57.93;99195.03;10497565;28;20044;-49
2020/12/24 04:46:00;;;;;;;23.70;9.73;;;;;;;-3.03;58.00;99191.19;10496618;28;20543;-49
2020/12/24 04:51:06;;;;;;;25.08;10.93;;;;;;;-3.05;57.74;99180.13;10496627;28;20394;-49
2020/12/24 04:56:09;;;;;;;21.48;9.20;;;;;;;-3.17;57.54;99172.88;10497427;28;20056;-51
2020/12/24 05:01:14;;;;;;;17.77;8.13;;;;;;;-3.34;57.63;99179.50;10497148;28;20048;-50
2020/12/24 05:06:18;;;;;;;14.98;6.32;;;;;;;-3.29;57.63;99192.19;10498260;28;20056;-50
2020/12/24 05:11:30;;;;;;;22.40;8.20;;;;;;;-3.27;57.72;99182.66;10494306;28;20040;-50
2020/12/24 05:16:32;;;;;;;21.92;8.93;;;;;;;-3.33;57.43;99176.00;10455361;28;20061;-51
2020/12/24 05:21:33;;;;;;;20.90;7.80;;;;;;;-3.25;57.78;99175.75;10493045;28;20040;-50
2020/12/24 05:26:36;;;;;;;18.98;8.45;;;;;;;-3.07;57.57;99185.34;10496025;28;20049;-51
2020/12/24 05:31:38;;;;;;;20.42;7.90;;;;;;;-3.04;57.54;99184.38;10498592;28;20040;-53
2020/12/24 05:36:39;;;;;;;26.23;9.52;;;;;;;-3.00;57.33;99175.66;10497836;28;20044;-51
2020/12/24 05:41:42;;;;;;;27.67;10.52;;;;;;;-2.94;57.46;99174.59;10495779;28;20040;-52
2020/12/24 05:46:45;;;;;;;17.35;6.60;;;;;;;-2.92;57.12;99173.63;10496528;28;20492;-49
2020/12/24 05:51:48;;;;;;;21.88;7.18;;;;;;;-2.89;57.41;99168.38;10496522;28;20045;-50
2020/12/24 05:56:52;;;;;;;26.23;10.30;;;;;;;-2.92;57.49;99168.50;10505184;28;20114;-49
2020/12/24 06:02:03;;;;;;;22.17;8.13;;;;;;;-2.83;57.24;99170.72;10503273;28;20052;-49
2020/12/24 06:07:08;;;;;;;23.65;9.50;;;;;;;-2.83;57.23;99175.84;10504237;28;20055;-49
2020/12/24 06:12:19;;;;;;;26.20;11.32;;;;;;;-2.72;57.31;99167.69;10503385;28;20059;-51
2020/12/24 06:17:22;;;;;;;19.75;7.43;;;;;;;-2.83;57.10;99164.72;10504942;28;20049;-51
2020/12/24 06:22:25;;;;;;;20.77;9.32;;;;;;;-2.76;57.33;99165.31;10502852;28;20139;-53
2020/12/24 06:27:32;;;;;;;24.05;9.45;;;;;;;-2.74;57.11;99168.66;10502364;28;20044;-51
2020/12/24 06:32:35;;;;;;;14.48;6.65;;;;;;;-2.68;57.34;99170.97;10506746;28;20048;-50
2020/12/24 06:37:40;;;;;;;20.60;7.50;;;;;;;-2.61;57.25;99172.44;10504111;28;20056;-50
2020/12/24 06:42:44;;;;;;;29.02;11.43;;;;;;;-2.44;57.03;99172.56;10501482;28;20055;-50
2020/12/24 06:48:21;;;;;;;26.20;9.77;;;;;;;-2.39;56.98;99157.78;10497881;28;20056;-49
2020/12/24 06:53:30;;;;;;;23.15;8.55;;;;;;;-2.27;57.06;99153.03;10501085;28;20076;-50
2020/12/24 06:58:39;;;;;;;27.80;10.30;;;;;;;-2.17;56.78;99141.44;10484785;28;20064;-51
2020/12/24 07:03:40;;;;;;;23.50;10.05;;;;;;;-2.00;56.97;99141.59;10461528;28;20056;-50
2020/12/24 07:08:49;;;;;;;24.48;9.98;;;;;;;-1.81;56.84;99139.03;10459009;28;20049;-52
2020/12/24 07:13:52;;;;;;;30.50;12.68;;;;;;;-1.78;56.46;99144.06;10458966;28;20137;-52
2020/12/24 07:18:57;;;;;;;27.48;11.88;;;;;;;-1.75;56.38;99148.25;10474296;28;20059;-53
2020/12/24 07:24:02;;;;;;;26.80;10.65;;;;;;;-1.58;56.85;99150.91;10500673;28;20565;-50
2020/12/24 07:29:05;;;;;;;31.80;11.98;;;;;;;-1.58;56.08;99150.91;10477168;28;20489;-52
2020/12/24 07:34:07;;;;;;;27.88;12.57;;;;;;;-1.50;56.63;99148.81;10459034;28;20055;-52
2020/12/24 07:39:10;;;;;;;29.45;12.57;;;;;;;-1.34;55.99;99150.72;10459363;28;20060;-49
2020/12/24 07:44:14;;;;;;;20.88;8.80;;;;;;;-1.45;55.73;99154.63;10460946;28;20462;-51
2020/12/24 07:49:15;;;;;;;25.77;9.73;;;;;;;-1.50;56.17;99153.97;10459483;28;20045;-51
2020/12/24 07:54:17;;;;;;;28.48;11.10;;;;;;;-1.34;55.95;99155.88;10457939;28;20045;-51
2020/12/24 07:59:21;;;;;;;16.90;6.95;;;;;;;-1.32;55.64;99154.06;10494089;28;20094;-51
2020/12/24 08:04:22;;;;;;;24.33;10.73;;;;;;;-1.49;55.30;99160.81;10498624;28;20483;-52
2020/12/24 08:09:24;;;;;;;25.88;10.18;;;;;;;-1.49;55.95;99153.06;10505553;28;20112;-52
2020/12/24 08:14:28;;;;;;;25.40;9.52;;;;;;;-1.29;55.73;99161.63;10498128;28;20485;-50
2020/12/24 08:19:34;;;;;;;26.38;10.85;;;;;;;-1.24;55.65;99167.44;10498662;28;20044;-50
2020/12/24 08:24:39;;;;;;;22.20;9.75;;;;;;;-1.27;55.15;99165.00;10498690;28;20373;-51
2020/12/24 08:29:42;;;;;;;27.85;11.35;;;;;;;-1.22;55.81;99157.91;10497992;28;20048;-49
2020/12/24 08:34:44;;;;;;;27.95;11.30;;;;;;;-0.93;55.14;99162.53;10497317;28;20044;-49
2020/12/24 08:39:45;;;;;;;25.02;10.70;;;;;;;-0.85;55.19;99156.19;10497170;28;20544;-48
2020/12/24 08:44:55;;;;;;;22.77;9.10;;;;;;;-0.71;55.06;99158.94;10496691;28;20056;-50
2020/12/24 08:49:57;;;;;;;21.13;9.93;;;;;;;-0.61;55.08;99147.28;10496793;28;20489;-50
2020/12/24 08:55:00;;;;;;;26.02;10.60;;;;;;;-0.60;55.02;99146.34;10496645;28;20053;-50
2020/12/24 09:00:06;;;;;;;25.00;9.73;;;;;;;-0.61;54.98;99144.69;10496435;28;20063;-51
2020/12/24 09:05:08;;;;;;;26.30;10.88;;;;;;;-0.66;54.64;99144.06;10497125;28;20048;-54
2020/12/24 09:10:13;;;;;;;27.95;11.38;;;;;;;-0.77;54.85;99148.91;10497127;28;20045;-49
2020/12/24 09:15:16;;;;;;;10.88;5.07;;;;;;;-0.82;54.58;99137.97;10497246;28;20044;-50
2020/12/24 09:20:23;;;;;;;16.10;4.65;;;;;;;-1.02;54.79;99131.16;10496669;28;20131;-48
2020/12/24 09:25:29;;;;;;;27.08;10.65;;;;;;;-0.94;55.27;99132.47;10496779;28;20050;-50
2020/12/24 09:30:32;;;;;;;25.10;11.32;;;;;;;-0.74;54.38;99133.28;10500118;28;20085;-50
2020/12/24 09:35:34;;;;;;;25.42;9.25;;;;;;;-0.60;54.58;99130.88;10507115;28;20059;-49
2020/12/24 09:40:38;;;;;;;24.98;10.55;;;;;;;-0.55;54.68;99134.06;10506702;28;20055;-50
2020/12/24 09:45:41;;;;;;;26.40;11.50;;;;;;;-0.57;54.82;99125.56;10504864;28;20055;-48
2020/12/24 09:50:42;;;;;;;24.40;9.85;;;;;;;-0.42;54.35;99123.13;10503449;28;20143;-49
2020/12/24 09:55:44;;;;;;;15.82;6.90;;;;;;;-0.48;54.20;99124.28;10504055;28;20123;-51
2020/12/24 10:00:47;;;;;;;23.98;9.90;;;;;;;-0.57;54.38;99112.66;10503816;28;20056;-50
2020/12/24 10:05:48;;;;;;;25.90;11.88;;;;;;;-0.50;54.45;99106.25;10503316;28;20093;-48
2020/12/24 10:10:50;;;;;;;25.05;10.57;;;;;;;-0.12;54.08;99106.09;10503290;28;20048;-48
2020/12/24 10:15:52;;;;;;;22.90;9.43;;;;;;;-0.04;54.12;99097.94;10502552;28;20051;-50
2020/12/24 10:20:54;;;;;;;22.00;9.00;;;;;;;-0.14;54.04;99105.34;10502351;28;20045;-47
2020/12/24 10:25:55;;;;;;;22.27;11.27;;;;;;;-0.18;54.18;99105.59;10502682;28;20048;-51
2020/12/24 10:30:58;;;;;;;25.42;11.80;;;;;;;-0.16;54.55;99088.25;10502210;28;20426;-49
2020/12/24 10:35:59;;;;;;;22.40;10.15;;;;;;;0.05;53.80;99076.78;10501470;28;20050;-49
2020/12/24 10:41:01;;;;;;;25.05;11.13;;;;;;;0.17;53.79;99072.75;10502819;28;20052;-51
2020/12/24 10:46:04;;;;;;;15.52;6.22;;;;;;;0.11;53.79;99062.72;10502736;28;20056;-49
2020/12/24 10:51:08;;;;;;;26.80;11.18;;;;;;;-0.05;54.17;99066.09;10506375;28;20044;-50
2020/12/24 10:56:12;;;;;;;28.40;11.95;;;;;;;0.16;54.06;99065.91;10501788;28;20389;-48
2020/12/24 11:01:16;;;;;;;24.25;11.90;;;;;;;0.27;53.42;99067.91;10502513;28;20075;-48
2020/12/24 11:06:19;;;;;;;28.70;12.30;;;;;;;0.07;53.44;99068.97;10501473;28;20049;-49
2020/12/24 11:11:20;;;;;;;29.40;12.57;;;;;;;0.16;53.65;99073.66;10501163;28;20045;-51
2020/12/24 11:16:25;;;;;;;27.40;12.60;;;;;;;0.26;53.75;99072.25;10459172;28;20114;-49
2020/12/24 11:21:30;;;;;;;26.67;12.60;;;;;;;0.16;53.42;99073.66;10497791;28;20044;-48
2020/12/24 11:26:33;;;;;;;25.27;11.60;;;;;;;-0.02;53.90;99065.13;10500512;28;20040;-48
2020/12/24 11:31:37;;;;;;;18.70;8.53;;;;;;;0.04;53.37;99056.22;10500255;28;20049;-48
2020/12/24 11:36:39;;;;;;;27.48;11.40;;;;;;;0.21;53.52;99056.97;10499990;28;20044;-51
2020/12/24 11:41:40;;;;;;;29.25;11.52;;;;;;;0.25;53.62;99064.56;10499950;28;20064;-50
2020/12/24 11:46:43;;;;;;;27.67;11.57;;;;;;;0.14;53.49;99063.41;10500090;28;20048;-48
2020/12/24 11:51:44;;;;;;;32.88;14.45;;;;;;;0.19;53.79;99058.00;10500019;28;20508;-49
2020/12/24 11:56:46;;;;;;;26.00;13.45;;;;;;;0.21;53.69;99069.91;10499425;28;20048;-52
2020/12/24 12:01:51;;;;;;;32.92;14.88;;;;;;;0.02;53.44;99060.63;10482852;28;20064;-50
2020/12/24 12:06:53;;;;;;;30.42;13.38;;;;;;;0.01;53.54;99070.13;10458519;28;20143;-49
2020/12/24 12:11:54;;;;;;;29.45;12.20;;;;;;;-0.02;53.97;99057.38;10461147;28;20040;-48
2020/12/24 12:16:57;;;;;;;26.98;12.90;;;;;;;0.03;53.75;99057.13;10497771;28;20415;-48
2020/12/24 12:21:59;;;;;;;23.65;9.30;;;;;;;-0.20;53.64;99066.91;10495207;28;20508;-49
2020/12/24 12:27:00;;;;;;;24.33;9.10;;;;;;;-0.48;54.37;99063.13;10493973;28;20460;-54
2020/12/24 12:32:03;;;;;;;15.70;6.45;;;;;;;-0.73;55.21;99055.78;10494454;28;20048;-50
2020/12/24 12:37:05;;;;;;;29.77;11.57;;;;;;;-0.83;55.53;99064.91;10494800;28;20048;-49
2020/12/24 12:42:06;;;;;;;30.70;11.40;;;;;;;-0.80;55.72;99056.13;10494285;28;20504;-50
2020/12/24 12:47:09;;;;;;;14.90;7.38;;;;;;;-0.89;55.74;99052.28;10492835;28;20401;-54
2020/12/24 12:52:10;;;;;;;22.75;8.65;;;;;;;-0.86;56.16;99051.28;10493910;28;20050;-55
2020/12/24 12:57:15;;;;;;;26.13;10.77;;;;;;;-0.84;56.03;99054.63;10494029;28;20057;-51
2020/12/24 13:02:17;;;;;;;20.58;8.65;;;;;;;-0.78;55.82;99037.09;10493845;28;20045;-48
2020/12/24 13:07:19;;;;;;;24.30;10.30;;;;;;;-0.83;56.25;99036.50;10491797;28;20060;-48
2020/12/24 13:12:21;;;;;;;24.73;11.27;;;;;;;-0.88;56.83;99040.22;10494834;28;20040;-48
2020/12/24 13:17:26;;;;;;;22.65;11.05;;;;;;;-0.94;56.83;99038.78;10494618;28;20049;-48
2020/12/24 13:22:27;;;;;;;21.80;9.52;;;;;;;-0.95;57.09;99031.94;10493562;28;20146;-50
2020/12/24 13:27:29;;;;;;;27.95;9.68;;;;;;;-0.86;57.44;99028.91;10492447;28;20063;-49
2020/12/24 13:32:32;;;;;;;25.23;10.18;;;;;;;-0.81;57.26;99028.66;10494151;28;20060;-50
2020/12/24 13:37:33;;;;;;;23.38;8.38;;;;;;;-0.84;57.30;99026.25;10494615;28;20060;-49
2020/12/24 13:42:36;;;;;;;21.60;7.90;;;;;;;-1.00;57.91;99019.25;10495208;28;20536;-51
2020/12/24 13:47:38;;;;;;;28.00;10.55;;;;;;;-0.99;58.30;99020.91;10495470;28;20489;-49
2020/12/24 13:52:40;;;;;;;22.00;9.55;;;;;;;-1.01;58.74;99015.03;10494623;28;20040;-50
2020/12/24 13:57:41;;;;;;;17.45;8.43;;;;;;;-1.06;58.81;99009.25;10492096;28;20126;-50
2020/12/24 14:02:44;;;;;;;29.77;10.88;;;;;;;-1.08;59.02;98990.41;10491531;28;20463;-51
2020/12/24 14:07:46;;;;;;;30.00;10.60;;;;;;;-1.06;59.38;98993.75;10490751;28;20481;-48
2020/12/24 14:12:47;;;;;;;30.75;11.60;;;;;;;-1.09;59.76;98988.75;10492140;28;20041;-50
2020/12/24 14:17:50;;;;;;;23.48;11.48;;;;;;;-1.14;60.20;98985.53;10497193;28;20067;-55
2020/12/24 14:22:51;;;;;;;22.30;8.45;;;;;;;-1.11;60.41;98982.81;10500393;28;20044;-51
2020/12/24 14:27:53;;;;;;;30.23;13.80;;;;;;;-1.11;60.21;98969.09;10499057;28;20052;-51
2020/12/24 14:32:56;;;;;;;11.55;5.40;;;;;;;-1.10;60.15;98966.44;10498209;28;20040;-51
2020/12/24 14:37:59;;;;;;;19.25;7.35;;;;;;;-1.19;60.50;98965.16;10500571;28;20099;-49
2020/12/24 14:43:01;;;;;;;25.98;9.32;;;;;;;-1.09;60.32;98955.22;10496873;28;20040;-48
2020/12/24 14:48:03;;;;;;;20.35;7.88;;;;;;;-1.09;60.05;98941.50;10496547;28;20053;-50
2020/12/24 14:53:05;;;;;;;21.50;10.32;;;;;;;-1.07;60.21;98935.34;10497212;28;20041;-48
2020/12/24 14:58:07;;;;;;;20.48;7.80;;;;;;;-1.01;59.98;98942.78;10497237;28;20064;-48
2020/12/24 15:03:10;;;;;;;19.95;8.07;;;;;;;-0.95;59.86;98931.31;10495148;28;20068;-50
2020/12/24 15:08:11;;;;;;;21.58;9.63;;;;;;;-0.98;59.75;98940.06;10499630;28;20085;-49
2020/12/24 15:13:13;;;;;;;33.33;11.85;;;;;;;-1.03;60.09;98936.03;10497039;28;20070;-51
2020/12/24 15:18:16;;;;;;;15.88;7.13;;;;;;;-1.10;60.36;98934.66;10498557;28;20198;-51
2020/12/24 15:23:17;;;;;;;27.58;10.63;;;;;;;-1.08;60.49;98949.13;10502310;28;20044;-51
2020/12/24 15:28:20;;;;;;;28.75;12.48;;;;;;;-0.86;60.20;98942.91;10502133;28;20068;-49
2020/12/24 15:33:22;;;;;;;31.90;13.57;;;;;;;-0.69;59.85;98942.88;10502647;28;20491;-49
2020/12/24 15:38:24;;;;;;;22.98;10.13;;;;;;;-0.67;59.29;98943.66;10501142;28;20425;-50
2020/12/24 15:43:26;;;;;;;28.42;12.63;;;;;;;-0.81;59.98;98928.84;10500227;28;20048;-51
2020/12/24 15:48:28;;;;;;;24.92;10.98;;;;;;;-0.75;59.59;98925.13;10457883;28;20053;-48
2020/12/24 15:53:30;;;;;;;22.25;8.70;;;;;;;-0.74;59.74;98927.66;10491880;28;20110;-50
2020/12/24 15:58:32;;;;;;;29.05;13.40;;;;;;;-0.72;59.55;98917.25;10498281;28;20079;-50
2020/12/24 16:03:34;;;;;;;18.65;7.63;;;;;;;-0.70;59.60;98902.50;10500308;28;20044;-48
2020/12/24 16:08:36;;;;;;;27.92;10.55;;;;;;;-0.72;59.51;98906.91;10498772;28;20582;-50
2020/12/24 16:13:39;;;;;;;22.35;10.50;;;;;;;-0.66;59.52;98903.19;10497946;28;20047;-50
2020/12/24 16:18:42;;;;;;;24.65;10.82;;;;;;;-0.66;59.30;98898.84;10497741;28;20056;-48
2020/12/24 16:23:44;;;;;;;20.23;8.47;;;;;;;-0.72;59.59;98901.75;10497793;28;20048;-51
2020/12/24 16:28:46;;;;;;;31.10;13.93;;;;;;;-0.78;59.80;98890.00;10497891;28;20295;-49
2020/12/24 16:33:49;;;;;;;22.90;10.27;;;;;;;-0.80;59.62;98881.53;10497644;28;20067;-50
2020/12/24 16:38:52;;;;;;;32.07;12.23;;;;;;;-0.74;59.79;98876.03;10497206;28;20048;-50
2020/12/24 16:43:53;;;;;;;25.83;9.60;;;;;;;-0.66;59.94;98860.13;10496925;28;20049;-48
2020/12/24 16:48:56;;;;;;;24.65;10.80;;;;;;;-0.56;59.40;98863.88;10497618;28;20360;-54
2020/12/24 16:53:58;;;;;;;31.08;12.88;;;;;;;-0.56;59.16;98863.88;10496506;28;20036;-50
2020/12/24 16:58:59;;;;;;;29.08;11.27;;;;;;;-0.62;59.28;98853.88;10496077;28;20489;-50
2020/12/24 17:04:02;;;;;;;25.85;9.23;;;;;;;-0.66;59.78;98852.38;10497429;28;20520;-49
2020/12/24 17:09:04;;;;;;;29.40;13.23;;;;;;;-0.65;59.84;98848.88;10497607;28;20139;-51
2020/12/24 17:14:05;;;;;;;23.75;8.93;;;;;;;-0.69;59.79;98842.22;10495260;28;20047;-48
2020/12/24 17:19:08;;;;;;;18.27;7.22;;;;;;;-0.77;60.08;98829.75;10496567;28;20068;-49
2020/12/24 17:24:10;;;;;;;18.20;7.45;;;;;;;-0.81;60.00;98824.81;10495951;28;20036;-50
2020/12/24 17:29:11;;;;;;;27.17;12.52;;;;;;;-0.79;59.97;98831.56;10494362;28;20056;-51
2020/12/24 17:34:14;;;;;;;18.50;7.72;;;;;;;-0.73;59.81;98825.25;10494167;28;20390;-51
2020/12/24 17:39:16;;;;;;;31.15;11.55;;;;;;;-0.74;60.19;98828.72;10491261;28;20056;-51
2020/12/24 17:44:17;;;;;;;32.67;13.05;;;;;;;-0.70;59.61;98810.44;10493227;28;20059;-50
2020/12/24 17:49:20;;;;;;;25.75;11.90;;;;;;;-0.55;59.60;98808.78;10490642;28;20142;-51
2020/12/24 17:54:22;;;;;;;25.33;12.07;;;;;;;-0.43;59.65;98809.88;10499934;28;20041;-48
2020/12/24 17:59:24;;;;;;;33.13;11.98;;;;;;;-0.45;59.14;98810.88;10499997;28;20178;-49
2020/12/24 18:04:27;;;;;;;29.77;12.63;;;;;;;-0.47;59.21;98798.84;10500117;28;20144;-48
2020/12/24 18:09:28;;;;;;;27.00;10.27;;;;;;;-0.47;58.98;98806.59;10499826;28;20052;-49
2020/12/24 18:14:30;;;;;;;30.00;12.50;;;;;;;-0.44;59.35;98789.28;10490921;28;20052;-51
2020/12/24 18:19:32;;;;;;;23.73;9.88;;;;;;;-0.43;59.03;98799.53;10499567;28;20393;-48
2020/12/24 18:24:34;;;;;;;28.23;12.55;;;;;;;-0.45;59.30;98787.63;10500994;28;20045;-49
2020/12/24 18:29:36;;;;;;;23.55;9.40;;;;;;;-0.44;59.03;98784.13;10499843;28;20110;-49
2020/12/24 18:34:38;;;;;;;25.80;10.70;;;;;;;-0.43;58.88;98806.44;10499812;28;20476;-51
2020/12/24 18:39:40;;;;;;;18.17;8.68;;;;;;;-0.47;59.27;98795.44;10498560;28;20048;-49
2020/12/24 18:44:42;;;;;;;27.52;11.93;;;;;;;-0.46;59.31;98797.13;10497603;28;20330;-51
2020/12/24 18:49:45;;;;;;;16.10;6.68;;;;;;;-0.47;58.98;98785.94;10498919;28;20048;-52
2020/12/24 18:54:46;;;;;;;27.42;12.55;;;;;;;-0.41;59.46;98781.38;10499467;28;20045;-49
2020/12/24 18:59:48;;;;;;;18.83;8.27;;;;;;;-0.42;59.28;98782.28;10497048;28;20060;-49
2020/12/24 19:04:51;;;;;;;20.73;9.30;;;;;;;-0.40;59.26;98772.69;10496834;28;20048;-52
2020/12/24 19:09:52;;;;;;;16.85;6.93;;;;;;;-0.40;59.34;98775.28;10497739;28;20087;-51
2020/12/24 19:14:54;;;;;;;28.85;11.93;;;;;;;-0.46;59.19;98776.47;10499983;28;20052;-51
2020/12/24 19:19:57;;;;;;;19.83;9.88;;;;;;;-0.44;59.24;98771.22;10499814;28;20499;-48
2020/12/24 19:24:58;;;;;;;14.30;5.47;;;;;;;-0.42;59.31;98771.97;10501682;28;20965;-50
2020/12/24 19:30:00;;;;;;;16.88;6.63;;;;;;;-0.45;59.05;98778.13;10500064;28;20439;-51
2020/12/24 19:35:21;;;;;;;26.45;12.95;;;;;;;-0.45;59.54;98772.13;10499984;28;20060;-49
2020/12/24 19:40:23;;;;;;;20.98;8.15;;;;;;;-0.45;59.47;98777.31;10499925;28;20075;-49
2020/12/24 19:45:25;;;;;;;26.63;9.55;;;;;;;-0.47;59.49;98762.69;10498746;28;20397;-49
2020/12/24 19:50:28;;;;;;;22.02;8.48;;;;;;;-0.39;59.61;98761.47;10498649;28;20097;-51
2020/12/24 19:55:30;;;;;;;16.88;8.20;;;;;;;-0.41;59.60;98768.47;10499228;28;20051;-52
2020/12/24 20:00:32;;;;;;;24.30;10.88;;;;;;;-0.47;59.79;98775.63;10497639;28;20079;-55
2020/12/24 20:05:34;;;;;;;17.55;6.93;;;;;;;-0.40;59.60;98757.19;10497518;28;20141;-48
2020/12/24 20:10:36;;;;;;;17.98;7.72;;;;;;;-0.41;59.62;98752.97;10499022;28;20041;-48
2020/12/24 20:15:38;;;;;;;18.10;7.45;;;;;;;-0.41;59.57;98750.38;10496050;28;20123;-48
2020/12/24 20:20:42;;;;;;;30.30;13.00;;;;;;;-0.42;60.12;98725.50;10497723;28;20052;-49
2020/12/24 20:25:44;;;;;;;23.58;9.18;;;;;;;-0.29;59.66;98731.63;10498002;28;20101;-51
2020/12/24 20:30:46;;;;;;;23.08;8.95;;;;;;;-0.33;59.07;98714.66;10496687;28;20538;-52
2020/12/24 20:35:48;;;;;;;22.83;9.05;;;;;;;-0.29;59.26;98690.31;10502398;28;20085;-56
2020/12/24 20:40:50;;;;;;;33.33;13.02;;;;;;;-0.15;59.50;98690.34;10500352;28;20045;-51
2020/12/24 20:45:53;;;;;;;29.10;10.73;;;;;;;-0.09;59.02;98684.84;10497221;28;20059;-50
2020/12/24 20:50:56;;;;;;;26.65;11.73;;;;;;;-0.02;58.84;98669.81;10496461;28;20059;-49
2020/12/24 20:55:58;;;;;;;34.70;13.63;;;;;;;0.14;58.63;98669.72;10497412;28;20056;-48
2020/12/24 21:01:00;;;;;;;25.02;12.38;;;;;;;0.33;58.61;98667.72;10495801;28;20053;-51
2020/12/24 21:06:04;;;;;;;30.58;9.63;;;;;;;0.32;57.99;98655.72;10495281;28;20151;-48
2020/12/24 21:11:05;;;;;;;20.50;9.55;;;;;;;0.32;58.17;98655.72;10492348;28;20053;-50
2020/12/24 21:16:08;;;;;;;23.45;8.25;;;;;;;0.30;57.94;98631.69;10491940;28;20044;-48
2020/12/24 21:21:11;;;;;;;27.90;10.57;;;;;;;0.32;58.11;98645.38;10495129;28;20057;-48
2020/12/24 21:26:17;;;;;;;27.58;10.93;;;;;;;0.33;58.35;98635.84;10502597;28;20070;-49
2020/12/24 21:31:19;;;;;;;30.15;11.95;;;;;;;0.39;58.30;98625.97;10510489;28;20055;-47
2020/12/24 21:36:22;;;;;;;35.38;11.32;;;;;;;0.43;58.20;98606.78;10512225;28;20093;-51
2020/12/24 21:41:23;;;;;;;29.38;12.60;;;;;;;0.53;57.60;98607.03;10509585;28;20049;-53
2020/12/24 21:46:25;;;;;;;23.48;9.65;;;;;;;0.56;57.62;98603.44;10509440;28;20052;-52
2020/12/24 21:51:30;;;;;;;26.45;11.07;;;;;;;0.49;57.86;98600.38;10510334;28;20076;-58
2020/12/24 21:56:31;;;;;;;24.27;9.88;;;;;;;0.43;57.72;98591.28;10507848;28;20496;-48
2020/12/24 22:01:33;;;;;;;31.73;12.25;;;;;;;0.41;57.50;98582.78;10498477;28;20052;-51
2020/12/24 22:06:36;;;;;;;22.95;10.43;;;;;;;0.33;58.22;98566.88;10510096;28;20052;-49
2020/12/24 22:11:37;;;;;;;26.52;11.23;;;;;;;0.39;57.87;98569.09;10508753;28;20381;-51
2020/12/24 22:16:39;;;;;;;26.90;10.88;;;;;;;0.41;57.84;98569.00;10508630;28;20048;-48
2020/12/24 22:21:41;;;;;;;24.10;9.48;;;;;;;0.38;57.42;98554.53;10508742;28;20056;-49
2020/12/24 22:26:48;;;;;;;25.92;10.77;;;;;;;0.40;57.83;98554.41;10508415;28;20052;-51
2020/12/24 22:31:50;;;;;;;20.98;7.82;;;;;;;0.49;57.93;98547.84;10508406;28;20063;-48
2020/12/24 22:36:52;;;;;;;26.10;11.15;;;;;;;0.53;57.43;98568.25;10507323;28;20106;-50
2020/12/24 22:41:57;;;;;;;22.80;8.90;;;;;;;0.56;57.63;98570.66;10501483;28;20105;-50
2020/12/24 22:47:01;;;;;;;25.40;8.90;;;;;;;0.37;58.01;98563.22;10502825;28;20053;-49
2020/12/24 22:52:06;;;;;;;;;;;;;;;0.42;57.86;98557.75;10502084;28;20131;-50
2020/12/24 22:57:08;;;;;;;21.75;9.38;;;;;;;0.50;57.90;98555.53;10501917;28;19943;-49
2020/12/24 23:02:10;;;;;;;21.23;8.40;;;;;;;0.47;57.93;98554.88;10501564;28;20474;-51
2020/12/24 23:07:12;;;;;;;20.58;8.73;;;;;;;0.40;58.22;98560.44;10500947;28;20056;-49
2020/12/24 23:12:14;;;;;;;19.65;8.20;;;;;;;0.46;58.51;98556.63;10499706;28;20054;-50